Time;durP1;ratioP1;P1;durP2;ratioP2;P2;SDS_P1;SDS_P2;PMS_P1;PMS_P2;Temp;Humidity;BMP_temperature;BMP_pressure;BME280_temperature;BME280_humidity;BME280_pressure;Samples;Min_cycle;Max_cycle;Signal;HPM_P1;HPM_P2
2023/07/16 00:02:23;;;;;;;3.80;2.00;;;;;;;;;;5033970;28;20037;-62
2023/07/16 00:04:49;;;;;;;6.18;2.15;;;;;;;;;;5033314;28;20458;-62
2023/07/16 00:07:14;;;;;;;6.57;1.90;;;;;;;;;;5034101;28;20068;-62
2023/07/16 00:09:40;;;;;;;4.72;2.10;;;;;;;;;;5044912;28;20025;-62
2023/07/16 00:12:05;;;;;;;5.60;2.50;;;;;;;;;;5073612;28;20035;-62
2023/07/16 00:14:31;;;;;;;4.97;2.17;;;;;;;;;;5059051;28;20071;-62
2023/07/16 00:16:57;;;;;;;6.15;2.20;;;;;;;;;;5050970;28;20028;-63
2023/07/16 00:19:23;;;;;;;4.85;2.20;;;;;;;;;;5052477;28;20029;-62
2023/07/16 00:21:48;;;;;;;3.22;1.80;;;;;;;;;;5052843;28;20534;-62
2023/07/16 00:24:13;;;;;;;3.58;2.08;;;;;;;;;;5051403;28;20438;-63
2023/07/16 00:26:39;;;;;;;4.15;2.13;;;;;;;;;;5032848;28;20035;-61
2023/07/16 00:29:04;;;;;;;5.30;2.05;;;;;;;;;;5033342;28;20029;-62
2023/07/16 00:31:32;;;;;;;4.28;2.20;;;;;;;;;;5032580;28;20104;-63
2023/07/16 00:33:58;;;;;;;3.63;2.03;;;;;;;;;;5034706;28;20095;-62
2023/07/16 00:36:23;;;;;;;5.40;2.45;;;;;;;;;;5056942;28;20033;-61
2023/07/16 00:38:50;;;;;;;3.90;2.20;;;;;;;;;;5072636;28;20026;-61
2023/07/16 00:41:15;;;;;;;5.13;2.60;;;;;;;;;;5073177;28;20060;-61
2023/07/16 00:43:41;;;;;;;4.85;2.30;;;;;;;;;;5066232;28;20052;-61
2023/07/16 00:46:08;;;;;;;5.35;2.42;;;;;;;;;;5053617;28;20087;-61
2023/07/16 00:48:36;;;;;;;4.40;2.45;;;;;;;;;;5052092;28;20048;-61
2023/07/16 00:51:03;;;;;;;3.85;2.20;;;;;;;;;;5049063;28;20029;-62
2023/07/16 00:53:28;;;;;;;6.40;2.53;;;;;;;;;;5050951;28;20385;-63
2023/07/16 00:55:54;;;;;;;5.05;2.30;;;;;;;;;;5052326;28;20454;-61
2023/07/16 00:58:19;;;;;;;4.75;2.30;;;;;;;;;;5053058;28;20420;-63
2023/07/16 01:00:45;;;;;;;7.50;2.60;;;;;;;;;;5052466;28;20479;-61
2023/07/16 01:03:13;;;;;;;7.28;2.55;;;;;;;;;;5035529;28;20030;-62
2023/07/16 01:05:49;;;;;;;5.80;2.50;;;;;;;;;;5063581;28;20361;-63
2023/07/16 01:08:20;;;;;;;6.05;2.40;;;;;;;;;;5072229;28;20144;-62
2023/07/16 01:10:45;;;;;;;4.18;2.35;;;;;;;;;;5071758;28;20024;-62
2023/07/16 01:13:11;;;;;;;4.78;2.55;;;;;;;;;;5054468;28;20040;-64
2023/07/16 01:15:37;;;;;;;4.57;2.70;;;;;;;;;;5031688;28;20510;-63
2023/07/16 01:18:04;;;;;;;4.78;2.60;;;;;;;;;;5048505;28;20025;-62
2023/07/16 01:20:30;;;;;;;6.50;2.78;;;;;;;;;;5050925;28;20060;-64
2023/07/16 01:23:14;;;;;;;9.85;2.63;;;;;;;;;;5043703;28;20056;-62
2023/07/16 01:25:49;;;;;;;8.65;3.38;;;;;;;;;;5050542;28;20413;-63
2023/07/16 01:28:27;;;;;;;5.05;2.60;;;;;;;;;;5052583;28;20033;-62
2023/07/16 01:30:55;;;;;;;8.48;2.97;;;;;;;;;;5054655;28;20515;-64
2023/07/16 01:33:21;;;;;;;6.65;3.10;;;;;;;;;;5064944;28;20036;-63
2023/07/16 01:35:47;;;;;;;4.97;3.00;;;;;;;;;;5071515;28;20384;-63
2023/07/16 01:38:13;;;;;;;7.38;3.38;;;;;;;;;;5072640;28;20041;-62
2023/07/16 01:40:38;;;;;;;7.10;3.20;;;;;;;;;;5071211;28;20090;-62
2023/07/16 01:43:04;;;;;;;7.22;3.90;;;;;;;;;;5053152;28;20056;-62
2023/07/16 01:45:29;;;;;;;6.32;3.78;;;;;;;;;;5052185;28;20037;-62
2023/07/16 01:48:07;;;;;;;7.35;4.10;;;;;;;;;;5049044;28;20029;-62
2023/07/16 01:50:32;;;;;;;7.75;4.25;;;;;;;;;;5051724;28;20033;-64
2023/07/16 01:52:58;;;;;;;8.98;4.30;;;;;;;;;;5034639;28;20033;-63
2023/07/16 01:55:23;;;;;;;6.40;3.90;;;;;;;;;;5033637;28;20065;-63
2023/07/16 01:57:49;;;;;;;7.35;3.85;;;;;;;;;;5051088;28;20389;-63
2023/07/16 02:00:14;;;;;;;6.57;4.05;;;;;;;;;;5050827;28;20115;-62
2023/07/16 02:02:39;;;;;;;4.43;2.97;;;;;;;;;;5054921;28;20428;-62
2023/07/16 02:05:05;;;;;;;5.78;3.20;;;;;;;;;;5051828;28;20036;-62
2023/07/16 02:07:30;;;;;;;6.15;3.30;;;;;;;;;;5043671;28;20044;-61
2023/07/16 02:09:56;;;;;;;6.75;3.22;;;;;;;;;;5031256;28;20029;-62
2023/07/16 02:12:21;;;;;;;6.07;2.85;;;;;;;;;;5040294;28;20029;-62
2023/07/16 02:14:47;;;;;;;5.05;2.70;;;;;;;;;;5050618;28;20028;-63
2023/07/16 02:17:12;;;;;;;4.32;2.42;;;;;;;;;;5059644;28;20151;-62
2023/07/16 02:19:39;;;;;;;4.53;2.60;;;;;;;;;;5067901;28;20059;-64
2023/07/16 02:22:05;;;;;;;6.25;2.90;;;;;;;;;;5051694;28;20108;-63
2023/07/16 02:24:30;;;;;;;5.50;2.58;;;;;;;;;;5058321;28;20108;-63
2023/07/16 02:26:56;;;;;;;4.55;2.30;;;;;;;;;;5070947;28;20035;-62
2023/07/16 02:29:21;;;;;;;4.72;2.30;;;;;;;;;;5069890;28;20034;-64
2023/07/16 02:31:48;;;;;;;6.13;2.50;;;;;;;;;;5032483;28;20039;-63
2023/07/16 02:34:13;;;;;;;6.93;2.42;;;;;;;;;;5030345;28;20068;-62
2023/07/16 02:36:39;;;;;;;4.32;2.45;;;;;;;;;;5030785;28;20470;-63
2023/07/16 02:39:04;;;;;;;7.40;2.50;;;;;;;;;;5032017;28;20047;-62
2023/07/16 02:41:30;;;;;;;4.20;2.20;;;;;;;;;;5046128;28;20393;-63
2023/07/16 02:44:04;;;;;;;4.30;2.40;;;;;;;;;;5050547;28;20083;-62
2023/07/16 02:46:30;;;;;;;12.65;2.45;;;;;;;;;;5049740;28;20037;-61
2023/07/16 02:48:55;;;;;;;5.47;2.50;;;;;;;;;;5050666;28;20044;-63
2023/07/16 02:51:23;;;;;;;5.65;2.50;;;;;;;;;;5050518;28;20053;-61
2023/07/16 02:53:49;;;;;;;4.90;2.50;;;;;;;;;;5050456;28;20056;-63
2023/07/16 02:56:14;;;;;;;5.13;3.00;;;;;;;;;;5050024;28;20453;-63
2023/07/16 02:58:39;;;;;;;5.25;2.40;;;;;;;;;;5059394;28;20029;-63
2023/07/16 03:01:08;;;;;;;5.43;2.30;;;;;;;;;;5057803;28;20488;-62
2023/07/16 03:03:33;;;;;;;5.45;2.55;;;;;;;;;;5043847;28;20081;-63
2023/07/16 03:05:59;;;;;;;6.18;2.60;;;;;;;;;;5044416;28;20596;-63
2023/07/16 03:08:29;;;;;;;5.78;2.70;;;;;;;;;;5049692;28;20029;-63
2023/07/16 03:10:56;;;;;;;4.65;2.40;;;;;;;;;;5050456;28;20048;-61
2023/07/16 03:13:21;;;;;;;3.60;2.15;;;;;;;;;;5051195;28;20037;-61
2023/07/16 03:15:47;;;;;;;7.15;2.40;;;;;;;;;;5053742;28;20035;-63
2023/07/16 03:18:12;;;;;;;7.63;2.97;;;;;;;;;;5051470;28;20040;-61
2023/07/16 03:20:38;;;;;;;3.33;2.15;;;;;;;;;;5048648;28;20029;-65
2023/07/16 03:23:03;;;;;;;3.95;2.45;;;;;;;;;;5053004;28;20040;-63
2023/07/16 03:25:29;;;;;;;7.32;2.70;;;;;;;;;;5051947;28;20033;-62
2023/07/16 03:27:54;;;;;;;7.65;2.70;;;;;;;;;;5049226;28;20077;-63
2023/07/16 03:30:19;;;;;;;3.70;2.22;;;;;;;;;;5049864;28;20025;-62
2023/07/16 03:32:45;;;;;;;4.05;2.13;;;;;;;;;;5053984;28;20033;-63
2023/07/16 03:35:10;;;;;;;5.10;2.20;;;;;;;;;;5066016;28;20039;-62
2023/07/16 03:37:35;;;;;;;5.65;2.47;;;;;;;;;;5057957;28;20032;-62
2023/07/16 03:40:16;;;;;;;6.32;2.20;;;;;;;;;;5053026;28;20040;-62
2023/07/16 03:42:42;;;;;;;4.15;2.30;;;;;;;;;;5053255;28;20052;-63
2023/07/16 03:45:08;;;;;;;3.55;2.13;;;;;;;;;;5054284;28;20110;-62
2023/07/16 03:47:33;;;;;;;6.55;2.20;;;;;;;;;;5053286;28;20044;-62
2023/07/16 03:50:00;;;;;;;5.30;2.10;;;;;;;;;;5048693;28;20520;-62
2023/07/16 03:52:26;;;;;;;9.55;2.40;;;;;;;;;;5054436;28;20028;-62
2023/07/16 03:54:52;;;;;;;4.45;2.05;;;;;;;;;;5052281;28;20123;-62
2023/07/16 03:57:17;;;;;;;5.65;1.95;;;;;;;;;;5052873;28;20040;-62
2023/07/16 03:59:43;;;;;;;7.93;2.20;;;;;;;;;;5052898;28;20032;-63
2023/07/16 04:02:08;;;;;;;4.68;1.98;;;;;;;;;;5054355;28;20337;-61
2023/07/16 04:04:34;;;;;;;4.75;1.90;;;;;;;;;;5063744;28;20032;-64
2023/07/16 04:06:59;;;;;;;6.50;2.30;;;;;;;;;;5062267;28;20216;-62
2023/07/16 04:09:24;;;;;;;9.15;2.10;;;;;;;;;;5054020;28;20025;-62
2023/07/16 04:11:50;;;;;;;6.40;2.10;;;;;;;;;;5053433;28;20032;-63
2023/07/16 04:14:15;;;;;;;3.75;2.00;;;;;;;;;;5059057;28;20035;-63
2023/07/16 04:16:41;;;;;;;6.25;2.30;;;;;;;;;;5065308;28;20358;-65
2023/07/16 04:19:09;;;;;;;4.80;2.15;;;;;;;;;;5052723;28;20186;-63
2023/07/16 04:21:35;;;;;;;8.60;2.38;;;;;;;;;;5054055;28;20033;-62
2023/07/16 04:24:01;;;;;;;9.55;2.25;;;;;;;;;;5051973;28;20100;-63
2023/07/16 04:26:27;;;;;;;5.82;2.38;;;;;;;;;;5051495;28;20102;-62
2023/07/16 04:28:52;;;;;;;4.38;1.83;;;;;;;;;;5049638;28;20040;-63
2023/07/16 04:31:18;;;;;;;6.45;2.45;;;;;;;;;;5072825;28;20354;-64
2023/07/16 04:33:43;;;;;;;7.38;2.33;;;;;;;;;;5087666;28;20099;-63
2023/07/16 04:36:08;;;;;;;9.02;2.70;;;;;;;;;;5069709;28;20456;-63
2023/07/16 04:38:34;;;;;;;5.72;2.60;;;;;;;;;;5053730;28;20068;-61
2023/07/16 04:40:59;;;;;;;6.40;2.45;;;;;;;;;;5051947;28;20120;-61
2023/07/16 04:43:24;;;;;;;6.82;2.83;;;;;;;;;;5052370;28;20095;-63
2023/07/16 04:45:50;;;;;;;6.25;2.75;;;;;;;;;;5052930;28;20037;-63
2023/07/16 04:48:15;;;;;;;4.63;2.42;;;;;;;;;;5034114;28;20083;-62
2023/07/16 04:50:43;;;;;;;7.70;2.72;;;;;;;;;;5033237;28;20534;-62
2023/07/16 04:53:09;;;;;;;9.50;2.60;;;;;;;;;;5033473;28;20036;-62
2023/07/16 04:55:39;;;;;;;6.60;2.40;;;;;;;;;;5033027;28;20367;-62
2023/07/16 04:58:05;;;;;;;8.52;2.67;;;;;;;;;;5043699;28;20473;-62
2023/07/16 05:00:33;;;;;;;4.63;2.30;;;;;;;;;;5037652;28;20082;-61
2023/07/16 05:02:58;;;;;;;8.38;2.53;;;;;;;;;;5032571;28;20424;-62
2023/07/16 05:05:24;;;;;;;6.20;2.60;;;;;;;;;;5033108;28;20033;-62
2023/07/16 05:07:49;;;;;;;4.85;2.60;;;;;;;;;;5032290;28;20034;-62
2023/07/16 05:10:18;;;;;;;5.43;2.40;;;;;;;;;;5050501;28;20037;-62
2023/07/16 05:12:43;;;;;;;6.18;2.78;;;;;;;;;;5039845;28;20440;-64
2023/07/16 05:15:09;;;;;;;6.35;2.90;;;;;;;;;;5035241;28;20029;-62
2023/07/16 05:17:34;;;;;;;4.90;2.47;;;;;;;;;;5032715;28;20021;-62
2023/07/16 05:20:00;;;;;;;6.53;2.60;;;;;;;;;;5044853;28;20454;-63
2023/07/16 05:22:25;;;;;;;10.18;2.55;;;;;;;;;;5052599;28;20189;-62
2023/07/16 05:24:50;;;;;;;6.55;2.42;;;;;;;;;;5051763;28;20039;-61
2023/07/16 05:27:16;;;;;;;4.68;2.47;;;;;;;;;;5062836;28;20091;-62
2023/07/16 05:29:41;;;;;;;8.35;2.80;;;;;;;;;;5057572;28;20147;-61
2023/07/16 05:32:07;;;;;;;9.43;3.13;;;;;;;;;;5051661;28;20033;-62
2023/07/16 05:34:33;;;;;;;6.45;2.72;;;;;;;;;;5052473;28;20025;-61
2023/07/16 05:36:59;;;;;;;9.13;3.03;;;;;;;;;;5051538;28;20029;-62
2023/07/16 05:39:24;;;;;;;7.70;3.13;;;;;;;;;;5051271;28;20029;-63
2023/07/16 05:41:49;;;;;;;9.70;3.22;;;;;;;;;;5054051;28;20422;-62
2023/07/16 05:44:15;;;;;;;6.78;2.45;;;;;;;;;;5072012;28;20045;-63
2023/07/16 05:46:40;;;;;;;7.47;3.00;;;;;;;;;;5072330;28;20040;-63
2023/07/16 05:49:06;;;;;;;9.55;2.70;;;;;;;;;;5064472;28;20226;-62
2023/07/16 05:51:32;;;;;;;5.40;2.40;;;;;;;;;;5049104;28;20028;-63
2023/07/16 05:53:57;;;;;;;7.72;2.70;;;;;;;;;;5050195;28;20377;-63
2023/07/16 05:56:22;;;;;;;5.18;2.28;;;;;;;;;;5071768;28;20464;-63
2023/07/16 05:58:48;;;;;;;6.07;2.50;;;;;;;;;;5066766;28;20076;-63
2023/07/16 06:01:13;;;;;;;7.55;2.60;;;;;;;;;;5041942;28;20040;-63
2023/07/16 06:03:39;;;;;;;11.40;3.08;;;;;;;;;;5046075;28;20051;-63
2023/07/16 06:06:04;;;;;;;7.82;2.70;;;;;;;;;;5051161;28;20500;-63
2023/07/16 06:08:32;;;;;;;5.63;2.85;;;;;;;;;;5054121;28;20120;-63
2023/07/16 06:10:58;;;;;;;10.20;3.33;;;;;;;;;;5070990;28;20472;-63
2023/07/16 06:13:23;;;;;;;5.82;2.20;;;;;;;;;;5056285;28;20043;-63
2023/07/16 06:15:49;;;;;;;8.60;3.13;;;;;;;;;;5031311;28;20374;-62
2023/07/16 06:18:14;;;;;;;9.20;3.20;;;;;;;;;;5050978;28;20025;-63
2023/07/16 06:20:44;;;;;;;7.95;3.00;;;;;;;;;;5052002;28;20062;-63
2023/07/16 06:23:11;;;;;;;7.90;3.10;;;;;;;;;;5063391;28;20024;-62
2023/07/16 06:25:36;;;;;;;6.65;2.78;;;;;;;;;;5071876;28;20028;-63
2023/07/16 06:28:01;;;;;;;5.80;2.60;;;;;;;;;;5065221;28;20043;-63
2023/07/16 06:30:27;;;;;;;9.02;3.10;;;;;;;;;;5048696;28;20041;-62
2023/07/16 06:32:52;;;;;;;6.93;3.08;;;;;;;;;;5031507;28;20060;-62
2023/07/16 06:35:18;;;;;;;10.40;3.10;;;;;;;;;;5031797;28;20355;-61
2023/07/16 06:37:43;;;;;;;5.97;3.33;;;;;;;;;;5032015;28;20029;-61
2023/07/16 06:40:09;;;;;;;11.75;3.33;;;;;;;;;;5032205;28;20313;-62
2023/07/16 06:42:34;;;;;;;10.98;3.72;;;;;;;;;;5031944;28;20044;-61
2023/07/16 06:44:59;;;;;;;9.60;3.28;;;;;;;;;;5031313;28;20461;-62
2023/07/16 06:47:25;;;;;;;8.20;3.03;;;;;;;;;;5040559;28;20035;-62
2023/07/16 06:49:50;;;;;;;11.20;3.78;;;;;;;;;;5070248;28;20033;-66
2023/07/16 06:52:20;;;;;;;6.15;3.17;;;;;;;;;;5065276;28;20044;-61
2023/07/16 06:54:46;;;;;;;8.50;3.57;;;;;;;;;;5050720;28;20044;-61
2023/07/16 06:57:11;;;;;;;8.77;3.55;;;;;;;;;;5047979;28;20021;-63
2023/07/16 06:59:36;;;;;;;7.60;3.20;;;;;;;;;;5054384;28;20200;-60
2023/07/16 07:02:02;;;;;;;8.95;3.58;;;;;;;;;;5059969;28;20034;-61
2023/07/16 07:04:28;;;;;;;8.93;3.80;;;;;;;;;;5034379;28;20040;-61
2023/07/16 07:06:53;;;;;;;8.50;3.22;;;;;;;;;;5032522;28;20041;-60
2023/07/16 07:09:18;;;;;;;7.22;3.20;;;;;;;;;;5054957;28;20037;-59
2023/07/16 07:11:46;;;;;;;6.53;2.83;;;;;;;;;;5055197;28;20091;-59
2023/07/16 07:14:11;;;;;;;7.15;3.53;;;;;;;;;;5053470;28;20111;-60
2023/07/16 07:16:37;;;;;;;6.93;3.17;;;;;;;;;;5051092;28;20120;-60
2023/07/16 07:19:02;;;;;;;8.60;3.42;;;;;;;;;;5054104;28;20056;-59
2023/07/16 07:21:30;;;;;;;11.73;3.50;;;;;;;;;;5055600;28;20029;-60
2023/07/16 07:23:55;;;;;;;8.45;4.00;;;;;;;;;;5054572;28;20025;-62
2023/07/16 07:26:20;;;;;;;8.15;3.17;;;;;;;;;;5054330;28;20123;-60
2023/07/16 07:28:46;;;;;;;7.25;3.20;;;;;;;;;;5055037;28;20040;-61
2023/07/16 07:31:11;;;;;;;8.00;3.33;;;;;;;;;;5054478;28;20044;-60
2023/07/16 07:33:36;;;;;;;9.15;3.70;;;;;;;;;;5055045;28;20036;-60
2023/07/16 07:36:02;;;;;;;8.52;3.50;;;;;;;;;;5052737;28;20542;-59
2023/07/16 07:38:28;;;;;;;9.65;3.60;;;;;;;;;;5054586;28;20091;-62
2023/07/16 07:40:53;;;;;;;7.20;3.05;;;;;;;;;;5054156;28;20112;-61
2023/07/16 07:43:19;;;;;;;9.40;3.50;;;;;;;;;;5052588;28;20124;-62
2023/07/16 07:45:44;;;;;;;8.00;3.30;;;;;;;;;;5046140;28;20029;-62
2023/07/16 07:48:10;;;;;;;12.90;4.07;;;;;;;;;;5033476;28;20393;-61
2023/07/16 07:50:35;;;;;;;10.00;4.05;;;;;;;;;;5034446;28;20033;-61
2023/07/16 07:53:00;;;;;;;7.18;3.50;;;;;;;;;;5042875;28;20031;-61
2023/07/16 07:55:26;;;;;;;8.23;3.88;;;;;;;;;;5054313;28;20033;-61
2023/07/16 07:57:51;;;;;;;7.80;3.10;;;;;;;;;;5054153;28;20082;-59
2023/07/16 08:00:17;;;;;;;7.55;3.42;;;;;;;;;;5053413;28;20072;-60
2023/07/16 08:02:42;;;;;;;8.43;3.80;;;;;;;;;;5051883;28;20033;-61
2023/07/16 08:05:08;;;;;;;8.35;3.70;;;;;;;;;;5053638;28;20104;-60
2023/07/16 08:07:33;;;;;;;8.93;3.50;;;;;;;;;;5054300;28;20029;-60
2023/07/16 08:09:59;;;;;;;11.30;3.70;;;;;;;;;;5052215;28;20029;-60
2023/07/16 08:12:24;;;;;;;11.45;3.50;;;;;;;;;;5053427;28;20446;-60
2023/07/16 08:14:49;;;;;;;9.35;3.08;;;;;;;;;;5054253;28;20028;-61
2023/07/16 08:17:15;;;;;;;6.75;3.00;;;;;;;;;;5053118;28;20017;-62
2023/07/16 08:19:40;;;;;;;6.10;3.30;;;;;;;;;;5053718;28;20462;-61
2023/07/16 08:22:05;;;;;;;8.13;3.88;;;;;;;;;;5049508;28;20140;-62
2023/07/16 08:24:31;;;;;;;6.78;3.45;;;;;;;;;;5034068;28;20025;-61
2023/07/16 08:26:56;;;;;;;7.70;3.72;;;;;;;;;;5048271;28;20214;-61
2023/07/16 08:29:22;;;;;;;6.88;3.28;;;;;;;;;;5052355;28;20029;-61
2023/07/16 08:31:47;;;;;;;7.38;3.00;;;;;;;;;;5036217;28;20375;-60
2023/07/16 08:34:12;;;;;;;9.00;3.25;;;;;;;;;;5051538;28;20079;-62
2023/07/16 08:36:38;;;;;;;7.80;3.70;;;;;;;;;;5053816;28;20414;-62
2023/07/16 08:39:03;;;;;;;5.80;3.20;;;;;;;;;;5052851;28;20036;-60
2023/07/16 08:41:29;;;;;;;5.90;2.65;;;;;;;;;;5053755;28;20021;-60
2023/07/16 08:43:56;;;;;;;7.03;3.50;;;;;;;;;;5036911;28;20107;-60
2023/07/16 08:46:21;;;;;;;8.23;2.70;;;;;;;;;;5032750;28;20100;-61
2023/07/16 08:48:48;;;;;;;8.68;3.08;;;;;;;;;;5032152;28;20112;-59
2023/07/16 08:51:15;;;;;;;9.45;3.33;;;;;;;;;;5032534;28;20035;-61
2023/07/16 08:53:40;;;;;;;10.32;3.90;;;;;;;;;;5050609;28;20037;-61
2023/07/16 08:56:06;;;;;;;8.65;3.58;;;;;;;;;;5053028;28;20029;-61
2023/07/16 08:58:31;;;;;;;5.28;3.10;;;;;;;;;;5053257;28;20112;-61
2023/07/16 09:00:59;;;;;;;6.40;3.45;;;;;;;;;;5052942;28;20496;-61
2023/07/16 09:03:27;;;;;;;11.73;3.65;;;;;;;;;;5041041;28;20044;-61
2023/07/16 09:05:54;;;;;;;8.32;3.05;;;;;;;;;;5033117;28;20026;-63
2023/07/16 09:08:19;;;;;;;4.78;3.10;;;;;;;;;;5032235;28;20036;-61
2023/07/16 09:10:54;;;;;;;6.03;3.42;;;;;;;;;;5033195;28;20029;-60
2023/07/16 09:13:19;;;;;;;6.70;3.47;;;;;;;;;;5042020;28;20032;-61
2023/07/16 09:15:50;;;;;;;7.78;3.75;;;;;;;;;;5038537;28;20037;-61
2023/07/16 09:18:22;;;;;;;5.55;2.90;;;;;;;;;;5031904;28;20082;-62
2023/07/16 09:20:58;;;;;;;9.57;3.70;;;;;;;;;;5033042;28;20048;-60
2023/07/16 09:23:27;;;;;;;7.20;3.08;;;;;;;;;;5032008;28;20163;-61
2023/07/16 09:25:56;;;;;;;10.77;3.38;;;;;;;;;;5032829;28;20138;-61
2023/07/16 09:28:21;;;;;;;7.22;3.40;;;;;;;;;;5031342;28;20072;-61
2023/07/16 09:30:50;;;;;;;8.75;3.42;;;;;;;;;;5032889;28;20378;-61
2023/07/16 09:33:22;;;;;;;7.00;2.70;;;;;;;;;;5040839;28;20116;-61
2023/07/16 09:35:50;;;;;;;5.70;3.00;;;;;;;;;;5052492;28;20036;-61
2023/07/16 09:38:19;;;;;;;7.45;2.90;;;;;;;;;;5051579;28;20071;-61
2023/07/16 09:40:45;;;;;;;7.97;3.47;;;;;;;;;;5052458;28;20120;-61
2023/07/16 09:43:12;;;;;;;10.63;3.88;;;;;;;;;;5050416;28;20448;-61
2023/07/16 09:45:38;;;;;;;9.52;3.63;;;;;;;;;;5052252;28;20037;-62
2023/07/16 09:48:04;;;;;;;5.95;3.00;;;;;;;;;;5050082;28;20503;-60
2023/07/16 09:50:34;;;;;;;6.25;3.00;;;;;;;;;;5052494;28;20056;-60
2023/07/16 09:53:00;;;;;;;8.48;3.50;;;;;;;;;;5044872;28;20059;-60
2023/07/16 09:55:25;;;;;;;5.53;2.67;;;;;;;;;;5031709;28;20041;-60
2023/07/16 09:57:56;;;;;;;12.55;3.50;;;;;;;;;;5031890;28;20448;-61
2023/07/16 10:00:23;;;;;;;6.75;3.20;;;;;;;;;;5030350;28;20151;-60
2023/07/16 10:02:50;;;;;;;7.25;2.70;;;;;;;;;;5035863;28;20029;-60
2023/07/16 10:05:16;;;;;;;5.63;3.00;;;;;;;;;;5051328;28;20069;-60
2023/07/16 10:07:43;;;;;;;9.77;3.83;;;;;;;;;;5052075;28;20033;-61
2023/07/16 10:10:10;;;;;;;7.43;2.72;;;;;;;;;;5051205;28;20074;-60
2023/07/16 10:12:36;;;;;;;8.43;2.65;;;;;;;;;;5051184;28;20057;-61
2023/07/16 10:15:03;;;;;;;5.97;2.78;;;;;;;;;;5051580;28;20029;-61
2023/07/16 10:17:31;;;;;;;6.10;2.55;;;;;;;;;;5051530;28;20029;-61
2023/07/16 10:20:07;;;;;;;8.90;3.20;;;;;;;;;;5050980;28;20056;-61
2023/07/16 10:22:39;;;;;;;5.25;2.80;;;;;;;;;;5051828;28;20124;-61
2023/07/16 10:25:17;;;;;;;6.00;2.60;;;;;;;;;;5051334;28;20024;-61
2023/07/16 10:27:43;;;;;;;8.48;3.38;;;;;;;;;;5051595;28;20036;-61
2023/07/16 10:30:08;;;;;;;6.03;2.90;;;;;;;;;;5045750;28;20128;-61
2023/07/16 10:32:34;;;;;;;6.00;2.95;;;;;;;;;;5038909;28;20108;-61
2023/07/16 10:35:01;;;;;;;9.48;3.15;;;;;;;;;;5051542;28;20029;-61
2023/07/16 10:37:26;;;;;;;7.00;2.90;;;;;;;;;;5050515;28;20423;-61
2023/07/16 10:39:59;;;;;;;6.25;3.00;;;;;;;;;;5049184;28;20104;-61
2023/07/16 10:42:26;;;;;;;5.13;2.67;;;;;;;;;;5036154;28;20030;-61
2023/07/16 10:44:54;;;;;;;5.82;3.25;;;;;;;;;;5039702;28;20053;-61
2023/07/16 10:47:24;;;;;;;8.68;3.40;;;;;;;;;;5034927;28;20139;-61
2023/07/16 10:49:54;;;;;;;11.02;3.20;;;;;;;;;;5035936;28;20036;-60
2023/07/16 10:52:21;;;;;;;7.05;2.80;;;;;;;;;;5054367;28;20064;-60
2023/07/16 10:54:48;;;;;;;6.60;2.92;;;;;;;;;;5054327;28;20512;-60
2023/07/16 10:57:13;;;;;;;7.70;3.22;;;;;;;;;;5054589;28;20049;-61
2023/07/16 10:59:40;;;;;;;6.40;2.75;;;;;;;;;;5055158;28;20465;-60
2023/07/16 11:02:10;;;;;;;5.05;2.38;;;;;;;;;;5034547;28;20034;-60
2023/07/16 11:04:35;;;;;;;6.90;3.03;;;;;;;;;;5035685;28;20052;-60
2023/07/16 11:07:08;;;;;;;6.75;3.20;;;;;;;;;;5035596;28;20466;-62
2023/07/16 11:09:34;;;;;;;7.10;2.80;;;;;;;;;;5033973;28;20048;-61
2023/07/16 11:12:11;;;;;;;4.22;2.75;;;;;;;;;;5053452;28;20037;-60
2023/07/16 11:14:37;;;;;;;6.93;2.97;;;;;;;;;;5055384;28;20458;-60
2023/07/16 11:17:09;;;;;;;5.53;3.08;;;;;;;;;;5054918;28;20048;-60
2023/07/16 11:19:35;;;;;;;5.95;3.00;;;;;;;;;;5053845;28;20060;-60
2023/07/16 11:22:02;;;;;;;6.28;3.05;;;;;;;;;;5053111;28;20525;-61
2023/07/16 11:24:27;;;;;;;6.88;2.80;;;;;;;;;;5054225;28;20429;-60
2023/07/16 11:26:57;;;;;;;6.82;3.05;;;;;;;;;;5055089;28;20532;-60
2023/07/16 11:29:23;;;;;;;8.10;3.60;;;;;;;;;;5053726;28;20025;-60
2023/07/16 11:31:50;;;;;;;6.32;3.13;;;;;;;;;;5052915;28;20033;-60
2023/07/16 11:34:16;;;;;;;7.75;2.97;;;;;;;;;;5054017;28;20036;-60
2023/07/16 11:36:42;;;;;;;6.50;3.10;;;;;;;;;;5055235;28;20120;-60
2023/07/16 11:39:07;;;;;;;8.07;3.05;;;;;;;;;;5054691;28;20489;-60
2023/07/16 11:41:33;;;;;;;8.27;3.03;;;;;;;;;;5039581;28;20037;-61
2023/07/16 11:44:07;;;;;;;7.78;2.90;;;;;;;;;;5034464;28;20049;-61
2023/07/16 11:46:33;;;;;;;9.07;3.20;;;;;;;;;;5034444;28;20115;-60
2023/07/16 11:49:00;;;;;;;7.32;3.22;;;;;;;;;;5034320;28;20026;-60
2023/07/16 11:51:28;;;;;;;6.72;2.85;;;;;;;;;;5045550;28;20029;-60
2023/07/16 11:53:56;;;;;;;6.63;3.20;;;;;;;;;;5053333;28;20025;-60
2023/07/16 11:56:21;;;;;;;6.53;2.90;;;;;;;;;;5053418;28;20036;-60
2023/07/16 11:58:47;;;;;;;8.07;3.20;;;;;;;;;;5053141;28;20029;-61
2023/07/16 12:01:14;;;;;;;7.45;3.28;;;;;;;;;;5041978;28;20116;-60
2023/07/16 12:03:39;;;;;;;6.38;2.92;;;;;;;;;;5034309;28;20060;-60
2023/07/16 12:06:05;;;;;;;7.03;3.10;;;;;;;;;;5034411;28;20076;-61
2023/07/16 12:08:30;;;;;;;8.88;3.58;;;;;;;;;;5037256;28;20551;-61
2023/07/16 12:10:56;;;;;;;6.55;2.83;;;;;;;;;;5045887;28;20104;-61
2023/07/16 12:13:21;;;;;;;5.90;2.90;;;;;;;;;;5032219;28;20025;-62
2023/07/16 12:15:49;;;;;;;9.13;3.30;;;;;;;;;;5034525;28;20462;-60
2023/07/16 12:18:15;;;;;;;6.00;2.97;;;;;;;;;;5032390;28;20083;-60
2023/07/16 12:20:40;;;;;;;7.90;3.30;;;;;;;;;;5034138;28;20390;-60
2023/07/16 12:23:06;;;;;;;7.68;3.00;;;;;;;;;;5034148;28;20403;-60
2023/07/16 12:25:31;;;;;;;6.30;2.85;;;;;;;;;;5033213;28;20018;-60
2023/07/16 12:27:57;;;;;;;7.65;3.20;;;;;;;;;;5032947;28;20040;-60
2023/07/16 12:30:23;;;;;;;6.30;2.88;;;;;;;;;;5052415;28;20100;-60
2023/07/16 12:32:49;;;;;;;7.32;3.47;;;;;;;;;;5053883;28;20106;-60
2023/07/16 12:35:14;;;;;;;5.95;3.20;;;;;;;;;;5053774;28;20458;-60
2023/07/16 12:37:40;;;;;;;7.03;2.83;;;;;;;;;;5056041;28;20422;-60
2023/07/16 12:40:06;;;;;;;6.82;2.95;;;;;;;;;;5034727;28;20030;-60
2023/07/16 12:42:32;;;;;;;7.93;2.70;;;;;;;;;;5044657;28;20060;-60
2023/07/16 12:44:57;;;;;;;6.43;2.90;;;;;;;;;;5053883;28;20076;-60
2023/07/16 12:47:22;;;;;;;8.00;3.35;;;;;;;;;;5052819;28;20040;-60
2023/07/16 12:49:48;;;;;;;7.25;2.72;;;;;;;;;;5052523;28;20112;-60
2023/07/16 12:52:13;;;;;;;7.50;3.10;;;;;;;;;;5050470;28;20485;-61
2023/07/16 12:54:38;;;;;;;8.68;3.30;;;;;;;;;;5053192;28;20033;-60
2023/07/16 12:57:04;;;;;;;9.13;3.35;;;;;;;;;;5053460;28;20381;-61
2023/07/16 12:59:30;;;;;;;7.03;3.00;;;;;;;;;;5050670;28;20036;-61
2023/07/16 13:01:55;;;;;;;6.82;3.30;;;;;;;;;;5053477;28;20024;-61
2023/07/16 13:04:21;;;;;;;7.07;2.88;;;;;;;;;;5051616;28;20346;-60
2023/07/16 13:06:47;;;;;;;4.53;2.45;;;;;;;;;;5053151;28;20090;-60
2023/07/16 13:09:14;;;;;;;6.07;2.83;;;;;;;;;;5049613;28;20111;-60
2023/07/16 13:11:39;;;;;;;5.88;2.97;;;;;;;;;;5052956;28;20093;-60
2023/07/16 13:14:05;;;;;;;7.25;3.20;;;;;;;;;;5053379;28;20033;-61
2023/07/16 13:16:30;;;;;;;5.93;3.20;;;;;;;;;;5052160;28;20033;-61
2023/07/16 13:18:55;;;;;;;5.95;3.20;;;;;;;;;;5052018;28;20079;-61
2023/07/16 13:21:21;;;;;;;5.93;3.17;;;;;;;;;;5049895;28;20033;-61
2023/07/16 13:23:46;;;;;;;6.40;2.97;;;;;;;;;;5052823;28;20029;-61
2023/07/16 13:26:12;;;;;;;6.10;2.90;;;;;;;;;;5052742;28;20040;-60
2023/07/16 13:28:37;;;;;;;5.57;3.13;;;;;;;;;;5051181;28;20380;-61
2023/07/16 13:31:02;;;;;;;7.65;3.40;;;;;;;;;;5050892;28;20020;-60
2023/07/16 13:33:28;;;;;;;5.53;2.90;;;;;;;;;;5051869;28;20025;-61
2023/07/16 13:35:53;;;;;;;7.65;3.50;;;;;;;;;;5052512;28;20021;-61
2023/07/16 13:38:19;;;;;;;6.43;2.88;;;;;;;;;;5050990;28;20029;-62
2023/07/16 13:40:44;;;;;;;7.18;3.28;;;;;;;;;;5051403;28;20370;-62
2023/07/16 13:43:10;;;;;;;6.68;3.25;;;;;;;;;;5052346;28;20049;-62
2023/07/16 13:45:35;;;;;;;6.25;3.10;;;;;;;;;;5051591;28;20044;-63
2023/07/16 13:48:01;;;;;;;6.07;3.13;;;;;;;;;;5052510;28;20063;-61
2023/07/16 13:50:26;;;;;;;7.75;3.40;;;;;;;;;;5049706;28;20041;-62
2023/07/16 13:52:52;;;;;;;8.27;3.30;;;;;;;;;;5047797;28;20433;-61
2023/07/16 13:55:17;;;;;;;6.18;3.13;;;;;;;;;;5031656;28;20022;-61
2023/07/16 13:57:43;;;;;;;6.75;3.40;;;;;;;;;;5032450;28;20095;-61
2023/07/16 14:00:09;;;;;;;5.53;3.30;;;;;;;;;;5045243;28;20032;-62
2023/07/16 14:02:36;;;;;;;6.60;3.50;;;;;;;;;;5050398;28;20079;-61
2023/07/16 14:05:01;;;;;;;7.50;3.30;;;;;;;;;;5052082;28;20044;-61
2023/07/16 14:07:27;;;;;;;6.43;3.33;;;;;;;;;;5051305;28;20032;-61
2023/07/16 14:09:52;;;;;;;7.30;3.20;;;;;;;;;;5050487;28;20150;-61
2023/07/16 14:12:18;;;;;;;7.28;3.80;;;;;;;;;;5050738;28;20037;-61
2023/07/16 14:14:43;;;;;;;7.63;3.03;;;;;;;;;;5051360;28;20029;-62
2023/07/16 14:17:08;;;;;;;8.50;3.63;;;;;;;;;;5051670;28;20366;-62
2023/07/16 14:19:35;;;;;;;5.88;3.17;;;;;;;;;;5049818;28;20037;-61
2023/07/16 14:22:01;;;;;;;7.70;3.30;;;;;;;;;;5051626;28;20025;-62
2023/07/16 14:24:26;;;;;;;6.35;3.10;;;;;;;;;;5051109;28;20025;-63
2023/07/16 14:26:52;;;;;;;8.70;4.00;;;;;;;;;;5052226;28;20061;-62
2023/07/16 14:29:17;;;;;;;7.00;3.35;;;;;;;;;;5044177;28;20137;-61
2023/07/16 14:31:46;;;;;;;7.03;3.22;;;;;;;;;;5032172;28;20030;-61
2023/07/16 14:34:11;;;;;;;8.18;3.10;;;;;;;;;;5031909;28;20033;-61
2023/07/16 14:36:37;;;;;;;6.50;3.17;;;;;;;;;;5030992;28;20185;-61
2023/07/16 14:39:03;;;;;;;6.30;3.20;;;;;;;;;;5034055;28;20025;-61